createdAt,value
2018-06-21T00:03:00.147Z,9.10
2018-06-21T00:08:02.298Z,9.13
2018-06-21T00:13:04.572Z,7.00
2018-06-21T00:18:06.735Z,6.40
2018-06-21T00:23:08.863Z,6.30
2018-06-21T00:28:11.234Z,5.20
2018-06-21T00:33:13.383Z,4.40
2018-06-21T00:38:15.519Z,4.07
2018-06-21T00:43:17.702Z,3.60
2018-06-21T00:48:19.861Z,2.80
2018-06-21T00:53:21.986Z,2.53
2018-06-21T00:58:24.115Z,2.90
2018-06-21T01:03:26.256Z,2.90
2018-06-21T01:08:28.388Z,3.03
2018-06-21T01:13:30.547Z,2.67
2018-06-21T01:18:32.694Z,3.03
2018-06-21T01:23:34.846Z,2.90
2018-06-21T01:28:36.961Z,3.23
2018-06-21T01:33:39.098Z,3.03
2018-06-21T01:38:41.236Z,4.03
2018-06-21T01:43:43.408Z,4.53
2018-06-21T01:48:45.559Z,3.53
2018-06-21T01:53:47.733Z,5.10
2018-06-21T01:58:49.894Z,4.53
2018-06-21T02:03:52.081Z,3.80
2018-06-21T02:08:54.191Z,4.97
2018-06-21T02:13:56.311Z,4.67
2018-06-21T02:18:58.443Z,4.63
2018-06-21T02:24:00.556Z,4.80
2018-06-21T02:29:02.724Z,5.20
2018-06-21T02:34:04.984Z,6.17
2018-06-21T02:39:07.790Z,5.80
2018-06-21T02:44:09.917Z,6.30
2018-06-21T02:49:12.076Z,6.97
2018-06-21T02:54:14.208Z,7.20
2018-06-21T02:59:16.322Z,5.67
2018-06-21T03:04:18.492Z,5.83
2018-06-21T03:09:20.637Z,5.20
2018-06-21T03:14:22.787Z,4.90
2018-06-21T03:19:24.907Z,4.93
2018-06-21T03:24:27.027Z,5.20
2018-06-21T03:29:29.143Z,5.20
2018-06-21T03:34:31.262Z,4.57
2018-06-21T03:39:33.401Z,5.30
2018-06-21T03:44:35.547Z,3.80
2018-06-21T03:49:37.668Z,3.70
2018-06-21T03:54:39.778Z,3.03
2018-06-21T03:59:41.907Z,1.97
2018-06-21T04:04:44.046Z,2.00
2018-06-21T04:09:46.172Z,1.47
2018-06-21T04:14:48.299Z,1.10
2018-06-21T04:19:50.535Z,1.47
2018-06-21T04:24:52.648Z,1.80
2018-06-21T04:29:54.762Z,1.20
2018-06-21T04:34:56.918Z,0.90
2018-06-21T04:39:59.057Z,1.27
2018-06-21T04:45:01.240Z,1.30
2018-06-21T04:50:03.460Z,1.70
2018-06-21T04:55:05.594Z,1.53
2018-06-21T05:00:07.776Z,3.03
2018-06-21T05:05:09.882Z,1.83
2018-06-21T05:10:12.030Z,2.30
2018-06-21T05:15:14.144Z,2.20
2018-06-21T05:20:16.263Z,2.10
2018-06-21T05:25:18.647Z,1.73
2018-06-21T05:30:20.792Z,1.70
2018-06-21T05:35:22.943Z,1.10
2018-06-21T05:40:36.460Z,1.37
2018-06-21T05:45:38.580Z,1.30
2018-06-21T05:50:40.745Z,1.17
2018-06-21T05:55:42.865Z,1.63
2018-06-21T06:00:45.035Z,1.63
2018-06-21T06:05:47.188Z,0.83
2018-06-21T06:10:49.349Z,1.20
2018-06-21T06:15:51.487Z,0.73
2018-06-21T06:20:53.610Z,1.20
2018-06-21T06:25:55.726Z,1.43
2018-06-21T06:30:58.110Z,1.13
2018-06-21T06:36:00.247Z,1.23
2018-06-21T06:41:02.415Z,1.00
2018-06-21T06:46:04.564Z,1.20
2018-06-21T06:51:06.702Z,0.83
2018-06-21T06:56:08.811Z,1.13
2018-06-21T07:01:10.950Z,0.90
2018-06-21T07:06:13.083Z,1.23
2018-06-21T07:11:15.645Z,1.67
2018-06-21T07:16:17.789Z,0.90
2018-06-21T07:21:19.941Z,1.10
2018-06-21T07:26:22.090Z,0.93
2018-06-21T07:31:24.223Z,0.90
2018-06-21T07:36:26.351Z,1.20
2018-06-21T07:41:28.503Z,1.10
2018-06-21T07:46:30.927Z,1.10
2018-06-21T07:51:33.070Z,0.90
2018-06-21T07:56:35.191Z,0.97
2018-06-21T08:01:37.323Z,1.10
2018-06-21T08:06:39.533Z,1.40
2018-06-21T08:11:41.823Z,0.93
2018-06-21T08:16:44.416Z,1.13
2018-06-21T08:21:46.551Z,1.27
2018-06-21T08:26:48.745Z,1.33
2018-06-21T08:31:50.847Z,1.00
2018-06-21T08:36:52.981Z,0.90
2018-06-21T08:41:55.107Z,1.10
2018-06-21T08:46:57.254Z,0.87
2018-06-21T08:51:59.439Z,0.73
2018-06-21T08:57:01.546Z,1.17
2018-06-21T09:02:03.706Z,1.10
2018-06-21T09:07:05.860Z,1.00
2018-06-21T09:12:08.018Z,1.17
2018-06-21T09:17:10.143Z,1.00
2018-06-21T09:22:12.282Z,1.53
2018-06-21T09:27:14.395Z,1.57
2018-06-21T09:32:16.560Z,1.07
2018-06-21T09:37:24.552Z,1.27
2018-06-21T09:42:32.449Z,1.10
2018-06-21T09:47:40.496Z,1.03
2018-06-21T09:52:42.675Z,1.00
2018-06-21T09:57:44.859Z,1.07
2018-06-21T10:02:47.817Z,1.07
2018-06-21T10:07:50.035Z,1.07
2018-06-21T10:12:52.165Z,1.10
2018-06-21T10:17:57.557Z,1.00
2018-06-21T10:22:59.757Z,1.10
2018-06-21T10:28:01.862Z,0.73
2018-06-21T10:33:04.051Z,0.90
2018-06-21T10:38:06.432Z,0.90
2018-06-21T10:43:08.599Z,1.33
2018-06-21T10:48:10.729Z,1.10
2018-06-21T10:53:12.854Z,0.90
2018-06-21T10:58:14.969Z,1.00
2018-06-21T11:03:17.267Z,1.10
2018-06-21T11:08:19.447Z,1.30
2018-06-21T11:13:21.559Z,1.00
2018-06-21T11:18:23.693Z,0.90
2018-06-21T11:23:25.830Z,0.90
2018-06-21T11:28:27.976Z,0.70
2018-06-21T11:33:30.109Z,0.80
2018-06-21T11:38:32.212Z,0.50
2018-06-21T11:43:34.420Z,0.60
2018-06-21T11:48:36.706Z,0.60
2018-06-21T11:53:38.844Z,0.80
2018-06-21T11:58:41.020Z,0.97
2018-06-21T12:03:43.147Z,0.70
2018-06-21T12:08:45.390Z,0.87
2018-06-21T12:13:47.537Z,0.93
2018-06-21T12:18:49.664Z,1.30
2018-06-21T12:23:51.795Z,0.73
2018-06-21T12:28:53.921Z,1.20
2018-06-21T12:33:56.078Z,1.30
2018-06-21T12:38:58.212Z,0.83
2018-06-21T12:44:00.403Z,1.50
2018-06-21T12:49:02.567Z,1.80
2018-06-21T12:54:04.719Z,0.83
2018-06-21T12:59:06.855Z,1.00
2018-06-21T13:04:08.990Z,1.30
2018-06-21T13:10:25.886Z,0.87
2018-06-21T13:15:28.114Z,0.73
2018-06-21T13:20:30.200Z,0.90
2018-06-21T13:25:32.376Z,1.10
2018-06-21T13:30:34.537Z,1.07
2018-06-21T13:35:36.777Z,1.10
2018-06-21T13:40:38.971Z,0.80
2018-06-21T13:45:41.156Z,0.90
2018-06-21T13:50:43.307Z,1.07
2018-06-21T13:55:45.457Z,0.70
2018-06-21T14:00:47.628Z,0.90
2018-06-21T14:05:49.763Z,1.40
2018-06-21T14:10:51.964Z,0.80
2018-06-21T14:15:54.143Z,0.67
2018-06-21T14:20:56.333Z,1.43
2018-06-21T14:25:58.480Z,0.80
2018-06-21T14:31:00.632Z,0.90
2018-06-21T14:36:02.808Z,0.60
2018-06-21T14:41:05.005Z,0.70
2018-06-21T14:46:07.223Z,1.00
2018-06-21T14:51:09.496Z,1.27
2018-06-21T14:56:11.867Z,0.90
2018-06-21T15:01:14.016Z,1.07
2018-06-21T15:06:16.158Z,1.03
2018-06-21T15:11:18.371Z,1.37
2018-06-21T15:16:21.775Z,1.37
2018-06-21T15:21:23.965Z,0.90
2018-06-21T15:26:26.180Z,1.47
2018-06-21T15:31:28.578Z,1.03
2018-06-21T15:36:30.745Z,1.40
2018-06-21T15:41:32.970Z,1.27
2018-06-21T15:46:35.218Z,1.57
2018-06-21T15:51:37.459Z,1.20
2018-06-21T15:56:39.580Z,1.00
2018-06-21T16:01:42.008Z,1.00
2018-06-21T16:06:44.198Z,1.10
2018-06-21T16:11:46.419Z,1.80
2018-06-21T16:16:48.585Z,1.37
2018-06-21T16:21:51.120Z,1.00
2018-06-21T16:26:53.384Z,1.20
2018-06-21T16:31:55.587Z,0.90
2018-06-21T16:36:57.786Z,1.17
2018-06-21T16:41:59.934Z,0.83
2018-06-21T16:47:02.180Z,1.00
2018-06-21T16:52:04.389Z,0.80
2018-06-21T16:57:06.851Z,1.10
2018-06-21T17:02:09.037Z,0.97
2018-06-21T17:07:11.186Z,1.00
2018-06-21T17:12:13.584Z,1.37
2018-06-21T17:17:15.725Z,1.13
2018-06-21T17:22:17.931Z,1.10
2018-06-21T17:27:20.107Z,1.23
2018-06-21T17:32:22.288Z,1.37
2018-06-21T17:37:24.785Z,1.17
2018-06-21T17:42:27.179Z,1.10
2018-06-21T17:47:29.364Z,0.93
2018-06-21T17:52:31.521Z,1.70
2018-06-21T17:57:33.688Z,1.73
2018-06-21T18:02:35.859Z,1.20
2018-06-21T18:07:38.060Z,1.17
2018-06-21T18:12:40.312Z,1.30
2018-06-21T18:17:42.528Z,1.53
2018-06-21T18:22:44.717Z,1.33
2018-06-21T18:27:46.915Z,1.20
2018-06-21T18:32:49.098Z,2.13
2018-06-21T18:37:51.521Z,1.10
2018-06-21T18:42:53.755Z,1.60
2018-06-21T18:47:55.955Z,1.57
2018-06-21T18:52:58.173Z,1.20
2018-06-21T18:58:00.376Z,1.50
2018-06-21T19:03:02.584Z,1.43
2018-06-21T19:08:10.314Z,1.50
2018-06-21T19:13:12.502Z,1.03
2018-06-21T19:18:14.685Z,1.43
2018-06-21T19:23:16.889Z,1.03
2018-06-21T19:28:19.074Z,1.00
2018-06-21T19:33:21.296Z,1.50
2018-06-21T19:38:23.551Z,1.37
2018-06-21T19:43:25.765Z,1.70
2018-06-21T19:48:28.009Z,1.30
2018-06-21T19:53:30.225Z,1.37
2018-06-21T19:58:32.443Z,1.50
2018-06-21T20:03:34.669Z,1.80
2018-06-21T20:08:36.852Z,1.20
2018-06-21T20:13:43.113Z,1.00
2018-06-21T20:18:45.514Z,1.53
2018-06-21T20:23:48.878Z,1.40
2018-06-21T20:28:51.054Z,1.20
2018-06-21T20:33:53.180Z,2.13
2018-06-21T20:38:55.451Z,1.47
2018-06-21T20:43:57.690Z,1.97
2018-06-21T20:48:59.910Z,1.53
2018-06-21T20:54:02.057Z,1.63
2018-06-21T20:59:04.319Z,1.60
2018-06-21T21:04:06.528Z,1.97
2018-06-21T21:09:08.899Z,1.63
2018-06-21T21:14:11.254Z,1.93
2018-06-21T21:19:13.433Z,1.40
2018-06-21T21:24:15.604Z,1.53
2018-06-21T21:29:17.796Z,1.63
2018-06-21T21:34:20.020Z,1.60
2018-06-21T21:39:22.240Z,1.70
2018-06-21T21:44:24.407Z,1.63
2018-06-21T21:49:26.572Z,1.97
2018-06-21T21:54:28.751Z,1.53
2018-06-21T21:59:30.928Z,1.90
2018-06-21T22:04:33.083Z,1.30
2018-06-21T22:09:35.237Z,1.47
2018-06-21T22:14:37.631Z,1.57
2018-06-21T22:19:39.844Z,2.00
2018-06-21T22:24:41.996Z,2.00
2018-06-21T22:29:44.176Z,1.80
2018-06-21T22:34:46.318Z,1.57
2018-06-21T22:39:48.478Z,1.60
2018-06-21T22:44:50.705Z,1.60
2018-06-21T22:49:52.839Z,1.70
2018-06-21T22:54:55.020Z,1.40
2018-06-21T22:59:57.198Z,1.30
2018-06-21T23:04:59.361Z,1.30
2018-06-21T23:10:01.529Z,2.03
2018-06-21T23:15:03.774Z,1.67
2018-06-21T23:20:05.928Z,1.83
2018-06-21T23:25:08.087Z,1.97
2018-06-21T23:30:10.246Z,1.50
2018-06-21T23:35:12.371Z,1.20
2018-06-21T23:40:14.520Z,1.73
2018-06-21T23:45:16.674Z,1.73
2018-06-21T23:50:18.809Z,1.23
2018-06-21T23:55:20.927Z,1.00
